Rossosh', Russia
Current Conditions -  °F | °C
As of 5:00 PM on Thursday 30 Oct 2014 (Local Time) from UUOO Reporting Station
Haze Haze  
Wind Chill: 46°   Ceiling: 10000
Heat Index: 48°   Visibility: 3mi
Dew Point: 23°   Wind: 4mph
Humidity: 37%   Direction: 120°ESE
Pressure: 30.21"   Gusts: NA
Location:  50.15°N, 39.28°E
Report Text: UUOO 301400Z 12002MPS 5000 HZ BKN100 09/M05 Q1023 NOSIG RMK12090070
Loading
Personal Weather Stations






























Interactive Weather Map
Tropical Storm Tracking
New forecast layout! Learn more

10-Day Weather Forecast

Advertisements
Track Severe Weather on mobile